»·PEaware :: SWA5954 KTUS-KSAN

SWA5954 :: KTUS-KSAN

FLIGHT INFORMATION

Flight Status: Arrived
Operator:
Southwest Airlines
More flights by this operator :: More flights under this callsign
Pilot: Joshua M. (19482)
Aircraft: BOEING 737-800
(B738)
More flights by this aircraft type
Origin: KTUS Tucson Intl
United States
Destination: KSAN San Diego Intl-Lindbergh
United States
More flights between these airports :: More routes between these airports
Route: +GBN V66 IPL BARET5
File this flight plan on PilotEdge
Remarks: Outdated FMC Default XPlane
Altitude:
(Current/Filed)
32,000ft
Speed:
(Current/Filed)
450kts
Departed: 08-Oct-18 12:40 PM
Arrived: 08-Oct-18 02:16 PM
Distance/Time
Traveled:
319nm/1:36
Distance/Time
To Go:
Arrived

Flight Plot

Page will automatically refresh every two minutes.

Flight plan parsing failed; only flown route is shown


Map Options




Map Legend


Flown Route
Filed Route
Departure Airport
Arrival Airport
Navaid (VOR, NDB)
Fix

Horizontal Profiles

Position Reports

Time Latitude Longitude Heading Altitude Ground
Speed
08-Oct-18 12:18 32.118774 -110.936473 333 2651ft 0kts
08-Oct-18 12:19 32.118774 -110.936473 333 2651ft 0kts
08-Oct-18 12:20 32.118774 -110.936473 333 2651ft 0kts
08-Oct-18 12:21 32.118774 -110.936473 333 2651ft 0kts
08-Oct-18 12:22 32.118774 -110.936473 333 2651ft 0kts
08-Oct-18 12:23 32.118774 -110.936473 333 2651ft 0kts
08-Oct-18 12:24 32.118774 -110.936473 333 2651ft 0kts
08-Oct-18 12:25 32.118774 -110.936473 333 2651ft 0kts
08-Oct-18 12:26 32.118705 -110.936433 333 2651ft 2kts
08-Oct-18 12:27 32.118245 -110.936164 333 2651ft 2kts
08-Oct-18 12:28 32.117806 -110.935906 333 2651ft 2kts
08-Oct-18 12:29 32.117504 -110.935728 333 2651ft 0kts
08-Oct-18 12:30 32.117504 -110.935728 333 2651ft 0kts
08-Oct-18 12:31 32.117505 -110.935729 333 2651ft 0kts
08-Oct-18 12:32 32.117702 -110.936406 264 2651ft 6kts
08-Oct-18 12:33 32.117690 -110.937410 270 2650ft 0kts
08-Oct-18 12:34 32.117437 -110.938129 201 2651ft 5kts
08-Oct-18 12:35 32.116139 -110.936915 136 2651ft 9kts
08-Oct-18 12:36 32.112732 -110.932930 134 2650ft 25kts
08-Oct-18 12:37 32.106229 -110.925406 135 2650ft 36kts
08-Oct-18 12:38 32.102837 -110.922053 225 2650ft 2kts
08-Oct-18 12:39 32.102728 -110.922171 222 2651ft 0kts
08-Oct-18 12:40 32.102728 -110.922171 222 2651ft 0kts
08-Oct-18 12:41 32.102431 -110.923214 299 2651ft 19kts
08-Oct-18 12:42 32.118401 -110.942116 314 2661ft 175kts
08-Oct-18 12:43 32.154882 -110.974453 328 4394ft 217kts
08-Oct-18 12:44 32.196519 -111.000614 329 6391ft 222kts
08-Oct-18 12:45 32.245043 -111.030753 329 8121ft 245kts
08-Oct-18 12:46 32.279058 -111.077930 295 9950ft 246kts
08-Oct-18 12:47 32.305249 -111.138188 294 11843ft 253kts
08-Oct-18 12:48 32.334278 -111.205271 294 13931ft 257kts
08-Oct-18 12:49 32.356094 -111.255790 294 15314ft 266kts
08-Oct-18 12:50 32.381535 -111.314890 295 16268ft 298kts
08-Oct-18 12:51 32.415369 -111.393583 295 17476ft 330kts
08-Oct-18 12:52 32.449732 -111.473560 295 19320ft 336kts
08-Oct-18 12:53 32.482046 -111.548915 296 20920ft 342kts
08-Oct-18 12:54 32.514743 -111.625312 296 22389ft 348kts
08-Oct-18 12:55 32.552791 -111.714508 296 23974ft 355kts
08-Oct-18 12:56 32.595124 -111.814085 297 25569ft 362kts
08-Oct-18 12:57 32.637024 -111.912880 297 26989ft 369kts
08-Oct-18 12:58 32.675709 -112.004309 298 28170ft 375kts
08-Oct-18 12:59 32.722700 -112.115647 298 29546ft 380kts
08-Oct-18 13:00 32.768526 -112.224581 299 31033ft 376kts
08-Oct-18 13:01 32.811424 -112.326771 299 31904ft 384kts
08-Oct-18 13:02 32.850226 -112.419305 299 31921ft 409kts
08-Oct-18 13:03 32.890201 -112.515068 299 31911ft 414kts
08-Oct-18 13:04 32.931551 -112.614533 299 31909ft 414kts
08-Oct-18 13:05 32.944723 -112.742924 267 31920ft 432kts
08-Oct-18 13:06 32.926886 -112.880142 266 31911ft 434kts
08-Oct-18 13:07 32.911600 -112.993945 266 31913ft 434kts
08-Oct-18 13:08 32.896067 -113.107746 266 31913ft 434kts
08-Oct-18 13:09 32.879467 -113.227540 266 31911ft 434kts
08-Oct-18 13:10 32.862042 -113.352629 266 31911ft 434kts
08-Oct-18 13:11 32.844609 -113.478030 266 31911ft 435kts
08-Oct-18 13:12 32.826998 -113.605304 266 31910ft 434kts
08-Oct-18 13:13 32.808758 -113.737779 265 31916ft 434kts
08-Oct-18 13:14 32.790827 -113.868751 266 31915ft 435kts
08-Oct-18 13:15 32.776051 -113.996275 273 31921ft 429kts
08-Oct-18 13:16 32.774072 -114.120910 274 31914ft 429kts
08-Oct-18 13:17 32.772000 -114.237550 273 31913ft 429kts
08-Oct-18 13:18 32.769556 -114.358490 273 31911ft 429kts
08-Oct-18 13:19 32.767209 -114.482153 274 31913ft 429kts
08-Oct-18 13:20 32.765541 -114.600672 274 31911ft 429kts
08-Oct-18 13:21 32.763743 -114.719726 273 31916ft 429kts
08-Oct-18 13:22 32.761809 -114.838178 273 31914ft 429kts
08-Oct-18 13:23 32.759819 -114.952158 273 31157ft 418kts
08-Oct-18 13:24 32.757641 -115.071749 273 29387ft 404kts
08-Oct-18 13:25 32.755545 -115.180155 275 27720ft 393kts
08-Oct-18 13:26 32.753352 -115.289673 274 26042ft 382kts
08-Oct-18 13:27 32.751269 -115.394014 274 24830ft 377kts
08-Oct-18 13:28 32.749018 -115.501626 274 23828ft 370kts
08-Oct-18 13:29 32.750747 -115.606446 277 23840ft 372kts
08-Oct-18 13:30 32.753375 -115.707291 276 23595ft 377kts
08-Oct-18 13:31 32.756092 -115.817260 275 21352ft 373kts
08-Oct-18 13:32 32.758396 -115.914422 274 19551ft 364kts
08-Oct-18 13:33 32.760349 -115.999113 274 17976ft 358kts
08-Oct-18 13:34 32.762867 -116.111921 273 15847ft 353kts
08-Oct-18 13:35 32.764878 -116.205931 272 14156ft 335kts
08-Oct-18 13:36 32.766306 -116.275643 272 12771ft 304kts
08-Oct-18 13:37 32.768177 -116.368978 271 11266ft 297kts
08-Oct-18 13:38 32.769455 -116.435302 272 10175ft 280kts
08-Oct-18 13:39 32.761562 -116.514987 252 9665ft 275kts
08-Oct-18 13:40 32.744436 -116.572434 251 8875ft 273kts
08-Oct-18 13:41 32.720850 -116.650888 251 7931ft 240kts
08-Oct-18 13:42 32.707785 -116.694099 251 7409ft 226kts
08-Oct-18 13:43 32.692426 -116.744677 251 6902ft 200kts
08-Oct-18 13:44 32.677185 -116.794653 251 5818ft 193kts
08-Oct-18 13:45 32.664225 -116.837218 251 4993ft 187kts
08-Oct-18 13:46 32.656930 -116.881126 287 5095ft 169kts
08-Oct-18 13:47 32.667105 -116.919228 286 4539ft 166kts
08-Oct-18 13:48 32.675996 -116.954116 285 3842ft 165kts
08-Oct-18 13:49 32.684357 -116.987727 284 3526ft 147kts
08-Oct-18 13:50 32.692599 -117.021298 284 3092ft 145kts
08-Oct-18 13:51 32.698331 -117.044800 284 2620ft 145kts
08-Oct-18 13:52 32.708856 -117.087965 283 1775ft 144kts
08-Oct-18 13:53 32.718716 -117.128498 283 981ft 142kts
08-Oct-18 13:54 32.727436 -117.164986 284 497ft 148kts
08-Oct-18 13:55 32.737180 -117.204051 284 34ft 131kts
08-Oct-18 13:56 32.752322 -117.252262 283 2469ft 183kts
08-Oct-18 13:57 32.767838 -117.319104 286 5007ft 215kts
08-Oct-18 13:58 32.785734 -117.389096 286 5015ft 231kts
08-Oct-18 13:59 32.833468 -117.427079 13 5025ft 242kts
08-Oct-18 14:00 32.863431 -117.364100 99 5031ft 250kts
08-Oct-18 14:01 32.851467 -117.288694 101 5009ft 249kts
08-Oct-18 14:02 32.837923 -117.206307 101 5012ft 270kts
08-Oct-18 14:03 32.824340 -117.123613 101 5010ft 271kts
08-Oct-18 14:04 32.810361 -117.038376 101 5010ft 271kts
08-Oct-18 14:05 32.796310 -116.952556 101 5010ft 271kts
08-Oct-18 14:06 32.782366 -116.867188 101 4994ft 248kts
08-Oct-18 14:07 32.771240 -116.798657 101 5019ft 210kts
08-Oct-18 14:08 32.745730 -116.748627 172 5023ft 200kts
08-Oct-18 14:09 32.703320 -116.780697 230 5011ft 190kts
08-Oct-18 14:10 32.691066 -116.840015 265 4999ft 188kts
08-Oct-18 14:11 32.683113 -116.901899 252 5125ft 194kts
08-Oct-18 14:12 32.677878 -116.957809 284 4603ft 166kts
08-Oct-18 14:13 32.690018 -117.008083 284 3870ft 144kts
08-Oct-18 14:14 32.700463 -117.052902 283 2636ft 143kts
08-Oct-18 14:15 32.711248 -117.097823 283 1678ft 141kts
08-Oct-18 14:16 32.721108 -117.138347 283 844ft 139kts
08-Oct-18 14:17 32.729936 -117.173903 281 163ft 137kts
08-Oct-18 14:18 32.735313 -117.198024 258 24ft 15kts
08-Oct-18 14:19 32.734290 -117.196966 106 24ft 17kts
08-Oct-18 14:20 32.732353 -117.194928 251 24ft 4kts
08-Oct-18 14:21 32.732606 -117.195558 311 24ft 0kts
08-Oct-18 14:22 32.732606 -117.195558 311 24ft 0kts
08-Oct-18 14:23 32.732606 -117.195558 311 24ft 0kts
08-Oct-18 14:24 32.732606 -117.195558 311 24ft 0kts

Navigation Log

Ident Type
Flight plan parsing failed, navigation log unavailable